createdAt,value
2022-11-15T00:00:11.685Z,6.50
2022-11-15T00:03:23.885Z,6.56
2022-11-15T00:06:30.241Z,6.63
2022-11-15T00:09:36.568Z,6.56
2022-11-15T00:12:42.917Z,6.50
2022-11-15T00:15:49.492Z,6.50
2022-11-15T00:18:55.805Z,6.56
2022-11-15T00:22:02.252Z,6.63
2022-11-15T00:25:08.837Z,6.63
2022-11-15T00:28:14.947Z,6.63
2022-11-15T00:31:21.512Z,6.50
2022-11-15T00:34:27.983Z,6.56
2022-11-15T00:37:34.491Z,6.50
2022-11-15T00:40:40.607Z,6.50
2022-11-15T00:43:46.605Z,6.56
2022-11-15T00:46:52.815Z,6.56
2022-11-15T00:49:59.352Z,6.63
2022-11-15T00:53:05.612Z,6.63
2022-11-15T00:56:12.321Z,6.63
2022-11-15T00:59:18.733Z,6.56
2022-11-15T01:02:25.192Z,6.50
2022-11-15T01:05:31.547Z,6.50
2022-11-15T01:08:39.862Z,6.56
2022-11-15T01:11:46.438Z,6.63
2022-11-15T01:14:52.731Z,6.50
2022-11-15T01:17:59.339Z,6.50
2022-11-15T01:21:11.808Z,6.50
2022-11-15T01:24:18.711Z,6.44
2022-11-15T01:27:25.110Z,6.38
2022-11-15T01:30:31.351Z,6.38
2022-11-15T01:33:38.064Z,6.44
2022-11-15T01:36:44.595Z,6.31
2022-11-15T01:39:51.105Z,6.38
2022-11-15T01:42:57.815Z,6.50
2022-11-15T01:46:38.931Z,6.56
2022-11-15T01:49:54.652Z,6.56
2022-11-15T01:53:00.842Z,6.56
2022-11-15T01:56:17.857Z,6.56
2022-11-15T01:59:24.328Z,6.50
2022-11-15T02:02:30.593Z,6.56
2022-11-15T02:05:38.532Z,6.44
2022-11-15T02:08:45.872Z,6.38
2022-11-15T02:11:55.653Z,6.38
2022-11-15T02:15:03.836Z,6.44
2022-11-15T02:18:28.484Z,6.38
2022-11-15T02:21:47.441Z,6.25
2022-11-15T02:25:37.175Z,6.19
2022-11-15T02:28:56.626Z,6.19
2022-11-15T02:32:40.855Z,6.19
2022-11-15T02:36:11.334Z,6.06
2022-11-15T02:39:47.064Z,6.19
2022-11-15T02:43:30.256Z,6.19
2022-11-15T02:47:04.661Z,6.13
2022-11-15T02:50:16.889Z,6.25
2022-11-15T02:53:27.257Z,6.31
2022-11-15T02:56:34.216Z,6.31
2022-11-15T03:00:07.674Z,6.19
2022-11-15T03:03:56.862Z,6.06
2022-11-15T03:07:30.401Z,6.06
2022-11-15T03:11:09.612Z,6.19
2022-11-15T03:14:24.399Z,6.25
2022-11-15T03:17:38.885Z,6.25
2022-11-15T03:20:47.146Z,6.19
2022-11-15T03:23:55.554Z,6.13
2022-11-15T03:27:04.174Z,6.13
2022-11-15T03:30:12.185Z,6.13
2022-11-15T03:33:20.924Z,6.13
2022-11-15T03:36:28.208Z,6.19
2022-11-15T03:39:34.728Z,6.06
2022-11-15T03:42:55.593Z,6.06
2022-11-15T03:46:17.458Z,6.06
2022-11-15T03:49:35.419Z,6.06
2022-11-15T03:52:43.415Z,5.88
2022-11-15T03:55:49.877Z,5.94
2022-11-15T03:58:56.425Z,6.06
2022-11-15T04:02:02.997Z,6.06
2022-11-15T04:05:09.470Z,6.00
2022-11-15T04:08:16.027Z,6.00
2022-11-15T04:11:22.314Z,6.00
2022-11-15T04:14:28.887Z,5.81
2022-11-15T04:17:49.376Z,5.88
2022-11-15T04:21:14.305Z,5.88
2022-11-15T04:24:20.293Z,5.88
2022-11-15T04:27:26.541Z,5.88
2022-11-15T04:30:33.084Z,5.94
2022-11-15T04:33:39.630Z,5.88
2022-11-15T04:37:04.610Z,5.88
2022-11-15T04:40:11.358Z,5.81
2022-11-15T04:43:17.700Z,5.88
2022-11-15T04:46:25.483Z,5.88
2022-11-15T04:49:31.844Z,5.81
2022-11-15T04:52:37.927Z,5.75
2022-11-15T04:55:47.756Z,5.75
2022-11-15T04:58:53.852Z,5.75
2022-11-15T05:02:00.285Z,5.81
2022-11-15T05:05:07.072Z,5.75
2022-11-15T05:08:13.671Z,5.81
2022-11-15T05:11:19.880Z,5.81
2022-11-15T05:14:26.218Z,5.81
2022-11-15T05:17:32.916Z,5.88
2022-11-15T05:20:39.425Z,5.94
2022-11-15T05:23:45.719Z,5.94
2022-11-15T05:26:51.925Z,6.06
2022-11-15T05:29:58.560Z,6.00
2022-11-15T05:33:05.325Z,5.94
2022-11-15T05:36:36.653Z,5.88
2022-11-15T05:39:43.172Z,5.88
2022-11-15T05:42:49.705Z,6.06
2022-11-15T05:45:56.231Z,6.06
2022-11-15T05:49:02.875Z,6.06
2022-11-15T05:52:15.720Z,6.13
2022-11-15T05:55:22.736Z,6.13
2022-11-15T05:58:29.455Z,6.19
2022-11-15T06:01:40.138Z,6.19
2022-11-15T06:04:46.548Z,6.19
2022-11-15T06:07:52.973Z,6.25
2022-11-15T06:11:06.176Z,6.19
2022-11-15T06:14:12.679Z,6.19
2022-11-15T06:17:18.696Z,6.13
2022-11-15T06:20:30.977Z,6.19
2022-11-15T06:23:37.401Z,6.25
2022-11-15T06:26:43.876Z,6.31
2022-11-15T06:29:50.174Z,6.38
2022-11-15T06:33:04.677Z,6.38
2022-11-15T06:36:17.758Z,6.31
2022-11-15T06:39:24.129Z,6.44
2022-11-15T06:42:30.684Z,6.56
2022-11-15T06:45:37.110Z,6.56
2022-11-15T06:48:43.317Z,6.63
2022-11-15T06:51:49.848Z,6.69
2022-11-15T06:54:56.240Z,6.81
2022-11-15T06:58:02.390Z,6.81
2022-11-15T07:01:12.444Z,6.75
2022-11-15T07:04:19.112Z,6.69
2022-11-15T07:07:25.312Z,6.69
2022-11-15T07:10:31.790Z,6.75
2022-11-15T07:13:38.393Z,6.63
2022-11-15T07:16:44.892Z,6.63
2022-11-15T07:19:51.333Z,6.63
2022-11-15T07:23:03.128Z,6.75
2022-11-15T07:26:09.882Z,6.75
2022-11-15T07:29:16.698Z,6.88
2022-11-15T07:32:23.385Z,6.94
2022-11-15T07:35:30.856Z,6.94
2022-11-15T07:38:42.558Z,6.88
2022-11-15T07:41:50.520Z,6.88
2022-11-15T07:44:57.344Z,7.00
2022-11-15T07:48:03.646Z,7.00
2022-11-15T07:51:15.036Z,7.06
2022-11-15T07:54:21.710Z,7.06
2022-11-15T07:57:28.107Z,7.13
2022-11-15T08:00:36.593Z,7.13
2022-11-15T08:03:42.822Z,7.13
2022-11-15T08:06:49.484Z,7.06
2022-11-15T08:09:56.334Z,7.06
2022-11-15T08:13:11.942Z,7.25
2022-11-15T08:16:20.935Z,7.44
2022-11-15T08:19:27.730Z,7.50
2022-11-15T08:22:34.858Z,7.50
2022-11-15T08:25:41.271Z,7.50
2022-11-15T08:28:47.542Z,7.63
2022-11-15T08:31:57.214Z,7.69
2022-11-15T08:35:04.022Z,7.63
2022-11-15T08:38:10.863Z,7.56
2022-11-15T08:41:32.007Z,7.56
2022-11-15T08:44:38.267Z,7.56
2022-11-15T08:47:47.358Z,7.50
2022-11-15T08:50:57.507Z,7.44
2022-11-15T08:54:05.065Z,7.44
2022-11-15T08:57:11.452Z,7.44
2022-11-15T09:00:20.920Z,7.50
2022-11-15T09:03:27.573Z,7.56
2022-11-15T09:06:33.711Z,7.63
2022-11-15T09:09:40.146Z,7.63
2022-11-15T09:12:49.412Z,7.56
2022-11-15T09:16:00.382Z,7.38
2022-11-15T09:19:11.718Z,7.44
2022-11-15T09:22:18.938Z,7.56
2022-11-15T09:25:25.591Z,7.63
2022-11-15T09:28:34.132Z,7.44
2022-11-15T09:31:40.711Z,7.19
2022-11-15T09:34:47.295Z,7.31
2022-11-15T09:37:56.433Z,7.56
2022-11-15T09:41:15.098Z,7.63
2022-11-15T09:45:13.350Z,7.75
2022-11-15T09:48:48.686Z,7.81
2022-11-15T09:51:51.559Z,7.88
2022-11-15T09:54:53.829Z,7.94
2022-11-15T09:58:01.785Z,7.94
2022-11-15T10:00:53.941Z,8.06
2022-11-15T10:03:43.114Z,8.06
2022-11-15T10:06:33.997Z,8.06
2022-11-15T10:09:30.349Z,8.00
2022-11-15T10:12:19.942Z,8.06
2022-11-15T10:15:17.076Z,7.94
2022-11-15T10:18:16.337Z,7.88
2022-11-15T10:21:20.577Z,8.06
2022-11-15T10:24:13.896Z,8.06
2022-11-15T10:27:01.783Z,8.00
2022-11-15T10:29:51.515Z,8.00
2022-11-15T10:32:41.667Z,7.94
2022-11-15T10:35:31.656Z,8.00
2022-11-15T10:38:19.525Z,7.88
2022-11-15T10:41:12.632Z,7.94
2022-11-15T10:44:19.558Z,7.94
2022-11-15T10:47:24.073Z,7.94
2022-11-15T10:50:33.380Z,7.94
2022-11-15T10:53:29.806Z,7.75
2022-11-15T10:56:23.368Z,7.63
2022-11-15T10:59:38.795Z,7.56
2022-11-15T11:02:33.453Z,7.63
2022-11-15T11:05:29.362Z,7.69
2022-11-15T11:08:17.189Z,7.88
2022-11-15T11:11:07.034Z,8.00
2022-11-15T11:13:54.934Z,7.88
2022-11-15T11:16:58.435Z,7.94
2022-11-15T11:20:08.594Z,8.00
2022-11-15T11:23:34.701Z,8.06
2022-11-15T11:26:43.633Z,8.06
2022-11-15T11:30:18.691Z,8.13
2022-11-15T11:34:04.080Z,8.19
2022-11-15T11:37:20.528Z,8.25
2022-11-15T11:40:30.227Z,8.25
2022-11-15T11:43:41.138Z,8.25
2022-11-15T11:46:55.840Z,8.25
2022-11-15T11:49:54.960Z,8.25
2022-11-15T11:53:30.472Z,8.19
2022-11-15T11:56:30.028Z,8.38
2022-11-15T11:59:52.688Z,8.31
2022-11-15T12:02:46.654Z,8.31
2022-11-15T12:05:49.883Z,8.19
2022-11-15T12:08:57.581Z,8.19
2022-11-15T12:12:05.744Z,8.19
2022-11-15T12:15:10.306Z,8.06
2022-11-15T12:17:58.455Z,7.94
2022-11-15T12:21:04.586Z,7.94
2022-11-15T12:24:01.281Z,7.88
2022-11-15T12:27:33.537Z,7.94
2022-11-15T12:30:24.018Z,7.94
2022-11-15T12:33:49.315Z,7.94
2022-11-15T12:36:45.260Z,7.88
2022-11-15T12:40:06.864Z,7.94
2022-11-15T12:43:15.033Z,7.88
2022-11-15T12:46:07.484Z,7.81
2022-11-15T12:49:23.812Z,7.63
2022-11-15T12:52:11.886Z,7.75
2022-11-15T12:55:01.423Z,7.75
2022-11-15T12:57:49.217Z,7.75
2022-11-15T13:00:39.114Z,7.81
2022-11-15T13:03:28.156Z,7.81
2022-11-15T13:06:45.089Z,7.75
2022-11-15T13:09:38.686Z,7.75
2022-11-15T13:12:26.480Z,7.69
2022-11-15T13:15:13.857Z,7.63
2022-11-15T13:18:30.013Z,7.56
2022-11-15T13:21:44.753Z,7.44
2022-11-15T13:24:32.618Z,7.44
2022-11-15T13:27:24.411Z,7.19
2022-11-15T13:30:22.302Z,6.94
2022-11-15T13:33:42.719Z,7.00
2022-11-15T13:36:35.244Z,6.94
2022-11-15T13:39:37.571Z,6.88
2022-11-15T13:42:29.535Z,6.94
2022-11-15T13:45:19.966Z,7.06
2022-11-15T13:48:09.249Z,7.19
2022-11-15T13:50:58.817Z,7.25
2022-11-15T13:53:53.515Z,7.31
2022-11-15T13:56:53.401Z,7.19
2022-11-15T13:59:54.695Z,7.06
2022-11-15T14:02:42.400Z,7.06
2022-11-15T14:05:30.037Z,7.00
2022-11-15T14:08:26.403Z,6.88
2022-11-15T14:11:19.940Z,6.50
2022-11-15T14:14:10.327Z,6.44
2022-11-15T14:17:01.380Z,6.31
2022-11-15T14:19:48.780Z,6.38
2022-11-15T14:22:38.189Z,6.38
2022-11-15T14:25:29.089Z,6.44
2022-11-15T14:28:24.160Z,6.50
2022-11-15T14:31:16.484Z,6.25
2022-11-15T14:34:04.575Z,6.06
2022-11-15T14:36:52.354Z,5.88
2022-11-15T14:39:39.916Z,5.94
2022-11-15T14:42:27.722Z,5.88
2022-11-15T14:45:22.699Z,5.88
2022-11-15T14:48:12.428Z,5.81
2022-11-15T14:51:00.525Z,5.81
2022-11-15T14:53:48.663Z,5.94
2022-11-15T14:56:36.443Z,5.75
2022-11-15T14:59:24.077Z,5.63
2022-11-15T15:02:23.073Z,5.81
2022-11-15T15:05:18.766Z,5.63
2022-11-15T15:08:08.052Z,5.63
2022-11-15T15:10:56.034Z,5.50
2022-11-15T15:13:43.996Z,5.56
2022-11-15T15:16:31.837Z,5.56
2022-11-15T15:19:19.492Z,5.63
2022-11-15T15:22:07.343Z,5.69
2022-11-15T15:24:55.017Z,5.69
2022-11-15T15:27:42.561Z,5.56
2022-11-15T15:30:31.756Z,5.63
2022-11-15T15:33:19.375Z,5.69
2022-11-15T15:36:14.461Z,5.69
2022-11-15T15:39:02.039Z,5.69
2022-11-15T15:41:52.340Z,5.69
2022-11-15T15:44:43.658Z,5.69
2022-11-15T15:47:31.061Z,5.75
2022-11-15T15:50:33.014Z,5.81
2022-11-15T15:53:20.711Z,5.88
2022-11-15T15:56:10.483Z,5.88
2022-11-15T15:58:57.837Z,5.94
2022-11-15T16:01:45.791Z,6.06
2022-11-15T16:04:33.604Z,6.13
2022-11-15T16:07:24.695Z,6.13
2022-11-15T16:10:29.012Z,6.19
2022-11-15T16:13:20.645Z,6.19
2022-11-15T16:16:23.086Z,6.25
2022-11-15T16:19:12.286Z,6.31
2022-11-15T16:22:00.036Z,6.31
2022-11-15T16:24:47.542Z,6.31
2022-11-15T16:27:38.944Z,6.38
2022-11-15T16:30:27.177Z,6.44
2022-11-15T16:33:16.119Z,6.44
2022-11-15T16:36:05.501Z,6.44
2022-11-15T16:38:54.431Z,6.50
2022-11-15T16:41:44.381Z,6.44
2022-11-15T16:44:31.725Z,6.50
2022-11-15T16:47:20.229Z,6.50
2022-11-15T16:50:31.275Z,6.50
2022-11-15T16:53:19.235Z,6.50
2022-11-15T16:56:27.444Z,6.56
2022-11-15T16:59:17.893Z,6.56
2022-11-15T17:02:12.544Z,6.63
2022-11-15T17:04:59.978Z,6.63
2022-11-15T17:07:55.027Z,6.56
2022-11-15T17:10:43.195Z,6.56
2022-11-15T17:13:33.229Z,6.63
2022-11-15T17:16:20.864Z,6.69
2022-11-15T17:19:18.142Z,6.75
2022-11-15T17:22:05.820Z,6.75
2022-11-15T17:24:53.553Z,6.75
2022-11-15T17:27:41.200Z,6.75
2022-11-15T17:30:28.918Z,6.69
2022-11-15T17:33:16.681Z,6.69
2022-11-15T17:36:08.203Z,6.63
2022-11-15T17:38:59.485Z,6.69
2022-11-15T17:41:47.892Z,6.75
2022-11-15T17:44:35.829Z,6.81
2022-11-15T17:47:23.573Z,6.81
2022-11-15T17:50:11.754Z,6.75
2022-11-15T17:53:00.635Z,6.81
2022-11-15T17:55:49.780Z,6.75
2022-11-15T17:58:39.167Z,6.63
2022-11-15T18:01:28.667Z,6.56
2022-11-15T18:04:17.545Z,6.63
2022-11-15T18:07:05.433Z,6.75
2022-11-15T18:09:53.855Z,6.69
2022-11-15T18:12:41.184Z,6.75
2022-11-15T18:15:28.702Z,6.69
2022-11-15T18:18:16.081Z,6.75
2022-11-15T18:21:11.696Z,6.75
2022-11-15T18:24:02.079Z,6.69
2022-11-15T18:26:50.093Z,6.69
2022-11-15T18:29:38.190Z,6.75
2022-11-15T18:32:25.692Z,6.81
2022-11-15T18:35:13.690Z,6.75
2022-11-15T18:38:01.622Z,6.81
2022-11-15T18:40:54.417Z,6.81
2022-11-15T18:43:43.400Z,6.81
2022-11-15T18:46:33.426Z,6.81
2022-11-15T18:49:21.122Z,6.88
2022-11-15T18:52:10.569Z,6.88
2022-11-15T18:54:59.446Z,6.94
2022-11-15T18:57:47.287Z,6.94
2022-11-15T19:00:34.823Z,6.94
2022-11-15T19:03:26.071Z,6.94
2022-11-15T19:06:20.023Z,7.00
2022-11-15T19:09:09.889Z,7.00
2022-11-15T19:11:57.295Z,6.94
2022-11-15T19:14:44.887Z,7.00
2022-11-15T19:17:34.830Z,7.00
2022-11-15T19:20:22.918Z,7.06
2022-11-15T19:23:11.568Z,7.06
2022-11-15T19:26:02.855Z,7.06
2022-11-15T19:29:11.931Z,7.06
2022-11-15T19:31:59.849Z,7.06
2022-11-15T19:34:47.293Z,7.13
2022-11-15T19:37:35.321Z,7.13
2022-11-15T19:40:22.924Z,7.13
2022-11-15T19:43:10.348Z,7.13
2022-11-15T19:46:02.634Z,7.13
2022-11-15T19:48:51.667Z,7.19
2022-11-15T19:51:42.550Z,7.13
2022-11-15T19:54:30.342Z,7.19
2022-11-15T19:57:18.423Z,7.13
2022-11-15T20:00:07.717Z,7.06
2022-11-15T20:02:55.659Z,6.88
2022-11-15T20:05:44.441Z,6.75
2022-11-15T20:08:32.759Z,6.81
2022-11-15T20:11:23.824Z,6.88
2022-11-15T20:14:13.428Z,6.88
2022-11-15T20:17:01.248Z,6.94
2022-11-15T20:19:49.305Z,7.00
2022-11-15T20:22:38.036Z,7.06
2022-11-15T20:25:25.439Z,7.13
2022-11-15T20:28:25.945Z,7.13
2022-11-15T20:31:14.399Z,7.13
2022-11-15T20:34:02.251Z,7.19
2022-11-15T20:36:50.870Z,7.13
2022-11-15T20:39:47.625Z,7.13
2022-11-15T20:42:35.259Z,7.13
2022-11-15T20:45:23.118Z,7.13
2022-11-15T20:48:13.857Z,7.13
2022-11-15T20:51:12.330Z,7.13
2022-11-15T20:54:00.033Z,7.19
2022-11-15T20:56:47.698Z,7.25
2022-11-15T20:59:35.288Z,7.25
2022-11-15T21:02:23.074Z,7.19
2022-11-15T21:05:10.976Z,7.19
2022-11-15T21:07:58.421Z,7.31
2022-11-15T21:11:26.033Z,7.31
2022-11-15T21:14:16.873Z,7.38
2022-11-15T21:17:05.060Z,7.38
2022-11-15T21:19:53.989Z,7.38
2022-11-15T21:22:41.429Z,7.44
2022-11-15T21:25:29.118Z,7.44
2022-11-15T21:28:17.357Z,7.38
2022-11-15T21:31:04.724Z,7.44
2022-11-15T21:33:52.329Z,7.38
2022-11-15T21:36:40.484Z,7.38
2022-11-15T21:39:28.880Z,7.38
2022-11-15T21:42:16.818Z,7.38
2022-11-15T21:45:05.585Z,7.38
2022-11-15T21:47:53.492Z,7.38
2022-11-15T21:50:41.145Z,7.38
2022-11-15T21:53:30.262Z,7.38
2022-11-15T21:56:18.241Z,7.38
2022-11-15T21:59:05.947Z,7.44
2022-11-15T22:02:11.995Z,7.38
2022-11-15T22:04:59.757Z,7.31
2022-11-15T22:07:47.330Z,7.31
2022-11-15T22:10:34.989Z,7.31
2022-11-15T22:13:26.910Z,7.31
2022-11-15T22:16:14.520Z,7.31
2022-11-15T22:19:01.927Z,7.38
2022-11-15T22:21:49.637Z,7.38
2022-11-15T22:24:38.516Z,7.38
2022-11-15T22:27:25.977Z,7.31
2022-11-15T22:30:13.994Z,7.31
2022-11-15T22:33:01.512Z,7.38
2022-11-15T22:35:51.832Z,7.44
2022-11-15T22:38:42.836Z,7.50
2022-11-15T22:41:39.145Z,7.50
2022-11-15T22:44:30.706Z,7.50
2022-11-15T22:47:20.483Z,7.56
2022-11-15T22:50:09.728Z,7.50
2022-11-15T22:52:58.812Z,7.50
2022-11-15T22:56:04.665Z,7.50
2022-11-15T22:58:57.754Z,7.56
2022-11-15T23:01:46.187Z,7.63
2022-11-15T23:04:34.513Z,7.63
2022-11-15T23:07:28.096Z,7.63
2022-11-15T23:10:35.502Z,7.50
2022-11-15T23:13:26.504Z,7.50
2022-11-15T23:16:24.031Z,7.50
2022-11-15T23:19:12.922Z,7.50
2022-11-15T23:22:18.747Z,7.56
2022-11-15T23:25:07.136Z,7.56
2022-11-15T23:27:54.468Z,7.56
2022-11-15T23:31:00.703Z,7.56
2022-11-15T23:33:57.522Z,7.50
2022-11-15T23:36:45.639Z,7.50
2022-11-15T23:39:33.690Z,7.56
2022-11-15T23:42:21.523Z,7.63
2022-11-15T23:45:09.430Z,7.63
2022-11-15T23:48:01.421Z,7.63
2022-11-15T23:50:49.959Z,7.56
2022-11-15T23:53:37.989Z,7.50
2022-11-15T23:56:25.836Z,7.50
2022-11-15T23:59:13.108Z,7.31
